createdAt,value
2023-05-07T00:00:47.386Z,21.9
2023-05-07T00:06:09.591Z,21.9
2023-05-07T00:11:47.158Z,21.9
2023-05-07T00:17:24.491Z,21.9
2023-05-07T00:23:02.429Z,21.9
2023-05-07T00:28:38.768Z,21.9
2023-05-07T00:34:31.681Z,21.9
2023-05-07T00:40:23.936Z,21.9
2023-05-07T00:46:00.588Z,21.9
2023-05-07T00:51:53.522Z,21.9
2023-05-07T00:57:44.458Z,21.9
2023-05-07T01:03:39.847Z,21.9
2023-05-07T01:09:36.846Z,21.9
2023-05-07T01:15:13.610Z,21.9
2023-05-07T01:21:05.855Z,21.8
2023-05-07T01:26:58.213Z,21.8
2023-05-07T01:32:50.010Z,21.8
2023-05-07T01:38:42.466Z,21.9
2023-05-07T01:44:35.087Z,21.8
2023-05-07T01:50:27.455Z,21.8
2023-05-07T01:56:19.295Z,21.8
2023-05-07T02:02:11.882Z,21.8
2023-05-07T02:08:04.131Z,21.8
2023-05-07T02:13:56.665Z,21.8
2023-05-07T02:19:48.924Z,21.8
2023-05-07T02:25:43.364Z,21.8
2023-05-07T02:31:35.328Z,21.8
2023-05-07T02:37:27.555Z,21.8
2023-05-07T02:43:18.921Z,21.8
2023-05-07T02:49:11.190Z,21.8
2023-05-07T02:55:05.592Z,21.8
2023-05-07T03:00:58.827Z,21.8
2023-05-07T03:06:51.731Z,21.8
2023-05-07T03:12:43.765Z,21.8
2023-05-07T03:18:36.012Z,21.8
2023-05-07T03:24:30.591Z,21.7
2023-05-07T03:30:22.746Z,21.7
2023-05-07T03:36:14.578Z,21.7
2023-05-07T03:42:08.450Z,21.7
2023-05-07T03:48:00.282Z,21.7
2023-05-07T03:53:52.242Z,21.7
2023-05-07T03:59:44.692Z,21.7
2023-05-07T04:05:38.487Z,21.7
2023-05-07T04:11:30.531Z,21.7
2023-05-07T04:17:23.235Z,21.7
2023-05-07T04:23:15.347Z,21.7
2023-05-07T04:29:07.492Z,21.7
2023-05-07T04:34:59.741Z,21.7
2023-05-07T04:40:51.784Z,21.7
2023-05-07T04:46:44.665Z,21.7
2023-05-07T04:52:36.862Z,21.6
2023-05-07T04:58:29.334Z,21.7
2023-05-07T05:04:22.731Z,21.7
2023-05-07T05:10:14.591Z,21.7
2023-05-07T05:16:07.438Z,21.7
2023-05-07T05:21:59.300Z,21.9
2023-05-07T05:27:50.517Z,21.9
2023-05-07T05:33:44.619Z,21.9
2023-05-07T05:39:36.497Z,21.9
2023-05-07T05:45:28.634Z,22
2023-05-07T05:51:07.968Z,25.5
2023-05-07T05:57:00.312Z,28.8
2023-05-07T06:02:53.044Z,28
2023-05-07T06:08:44.976Z,27.3
2023-05-07T06:14:37.011Z,31.1
2023-05-07T06:20:29.294Z,31.4
2023-05-07T06:26:23.353Z,31.9
2023-05-07T06:32:14.032Z,32.3
2023-05-07T06:38:07.670Z,32.7
2023-05-07T06:43:59.342Z,33.3
2023-05-07T06:49:52.024Z,34
2023-05-07T06:55:30.166Z,34.7
2023-05-07T07:01:22.487Z,35.3
2023-05-07T07:07:15.024Z,36
2023-05-07T07:13:07.677Z,36.7
2023-05-07T07:19:01.057Z,37.4
2023-05-07T07:24:54.229Z,38
2023-05-07T07:30:48.003Z,38.8
2023-05-07T07:36:51.959Z,39.3
2023-05-07T07:42:45.099Z,39.6
2023-05-07T07:48:39.165Z,40.2
2023-05-07T07:54:49.985Z,40.8
2023-05-07T08:00:47.687Z,41.3
2023-05-07T08:06:31.831Z,41.5
2023-05-07T08:12:26.079Z,42.1
2023-05-07T08:18:20.359Z,42.6
2023-05-07T08:24:15.005Z,42.9
2023-05-07T08:30:10.050Z,43.5
2023-05-07T08:36:05.670Z,44
2023-05-07T08:42:02.030Z,44.5
2023-05-07T08:47:57.147Z,44.9
2023-05-07T08:53:51.003Z,45.5
2023-05-07T08:59:46.074Z,46
2023-05-07T09:05:41.495Z,44.1
2023-05-07T09:11:23.004Z,44.9
2023-05-07T09:17:02.208Z,45.9
2023-05-07T09:22:58.610Z,46.8
2023-05-07T09:28:56.289Z,47.4
2023-05-07T09:34:52.527Z,48.2
2023-05-07T09:40:50.284Z,48.8
2023-05-07T09:46:43.697Z,49.4
2023-05-07T09:52:37.500Z,49.4
2023-05-07T09:58:34.672Z,46.9
2023-05-07T10:04:31.371Z,47.7
2023-05-07T10:10:25.040Z,49.1
2023-05-07T10:16:20.730Z,50
2023-05-07T10:22:17.025Z,50.7
2023-05-07T10:28:13.509Z,51.5
2023-05-07T10:34:09.549Z,52
2023-05-07T10:40:04.502Z,52.6
2023-05-07T10:45:43.698Z,52.8
2023-05-07T10:51:57.313Z,53.3
2023-05-07T10:57:35.596Z,53.7
2023-05-07T11:03:47.585Z,54.1
2023-05-07T11:09:42.644Z,54.5
2023-05-07T11:15:36.513Z,54.9
2023-05-07T11:21:34.073Z,55.2
2023-05-07T11:27:32.146Z,55.6
2023-05-07T11:33:25.995Z,55.8
2023-05-07T11:39:05.225Z,55.9
2023-05-07T11:45:04.375Z,56.3
2023-05-07T11:50:58.900Z,56.5
2023-05-07T11:56:55.337Z,56.8
2023-05-07T12:02:49.655Z,57
2023-05-07T12:08:46.511Z,57.2
2023-05-07T12:14:28.591Z,57.4
2023-05-07T12:20:06.673Z,57.6
2023-05-07T12:31:08.857Z,57.9
2023-05-07T12:37:03.101Z,58
2023-05-07T12:42:57.691Z,58.1
2023-05-07T12:48:38.169Z,58.1
2023-05-07T12:54:16.271Z,58.2
2023-05-07T12:59:53.770Z,58.3
2023-05-07T13:05:34.367Z,58.3
2023-05-07T13:11:12.990Z,58.2
2023-05-07T13:16:55.270Z,58.1
2023-05-07T13:22:50.235Z,58
2023-05-07T13:28:56.286Z,57.1
2023-05-07T13:34:50.678Z,56.9
2023-05-07T13:40:45.190Z,56.9
2023-05-07T13:46:37.763Z,56.8
2023-05-07T13:52:28.853Z,56.6
2023-05-07T13:58:07.586Z,56.4
2023-05-07T14:04:00.832Z,56.1
2023-05-07T14:09:53.373Z,55.8
2023-05-07T14:15:48.382Z,55.4
2023-05-07T14:21:43.610Z,55.1
2023-05-07T14:27:52.406Z,54.8
2023-05-07T14:33:45.092Z,54.4
2023-05-07T14:39:37.040Z,53.9
2023-05-07T14:45:30.057Z,53.4
2023-05-07T14:51:21.647Z,52.9
2023-05-07T14:57:14.043Z,52.3
2023-05-07T15:03:11.742Z,51.8
2023-05-07T15:09:04.167Z,51.2
2023-05-07T15:14:56.163Z,48.4
2023-05-07T15:20:51.578Z,45.8
2023-05-07T15:26:43.505Z,43.6
2023-05-07T15:32:37.317Z,41.9
2023-05-07T15:38:29.458Z,40.7
2023-05-07T15:44:20.946Z,39.8
2023-05-07T15:50:13.297Z,38.9
2023-05-07T15:56:06.142Z,38.1
2023-05-07T16:01:59.010Z,37.6
2023-05-07T16:07:52.512Z,37
2023-05-07T16:13:45.311Z,36
2023-05-07T16:19:39.733Z,34.7
2023-05-07T16:25:31.906Z,36.8
2023-05-07T16:31:23.132Z,33.8
2023-05-07T16:37:17.006Z,35
2023-05-07T16:43:11.760Z,30.2
2023-05-07T16:48:48.061Z,29.9
2023-05-07T16:54:25.382Z,29.8
2023-05-07T17:00:17.324Z,30.3
2023-05-07T17:06:26.311Z,29.5
2023-05-07T17:12:19.905Z,28.6
2023-05-07T17:18:12.193Z,28
2023-05-07T17:24:03.488Z,27.4
2023-05-07T17:29:55.274Z,27
2023-05-07T17:36:04.581Z,26.6
2023-05-07T17:41:40.398Z,26.3
2023-05-07T17:47:32.100Z,26.1
2023-05-07T17:53:33.222Z,25.8
2023-05-07T17:59:21.862Z,25.6
2023-05-07T18:05:14.466Z,25.4
2023-05-07T18:10:50.911Z,25.2
2023-05-07T18:16:42.637Z,25
2023-05-07T18:22:36.509Z,24.9
2023-05-07T18:28:28.220Z,24.8
2023-05-07T18:34:08.092Z,24.6
2023-05-07T18:40:00.165Z,24.6
2023-05-07T18:45:51.855Z,24.4
2023-05-07T18:51:44.659Z,24.3
2023-05-07T18:57:20.754Z,24.2
2023-05-07T19:03:11.765Z,24.1
2023-05-07T19:09:04.145Z,24.1
2023-05-07T19:15:10.387Z,23.9
2023-05-07T19:21:03.102Z,23.9
2023-05-07T19:26:55.452Z,23.8
2023-05-07T19:33:08.385Z,23.7
2023-05-07T19:38:45.666Z,23.6
2023-05-07T19:44:38.898Z,23.6
2023-05-07T19:50:34.643Z,23.5
2023-05-07T19:56:28.770Z,23.4
2023-05-07T20:02:22.448Z,23.3
2023-05-07T20:08:00.895Z,23.3
2023-05-07T20:13:38.145Z,23.2
2023-05-07T20:19:32.760Z,23.2
2023-05-07T20:25:11.005Z,23.1
2023-05-07T20:31:02.813Z,23.1
2023-05-07T20:36:55.092Z,23
2023-05-07T20:42:47.269Z,23
2023-05-07T20:48:42.290Z,23
2023-05-07T20:54:36.903Z,22.9
2023-05-07T21:00:29.102Z,22.9
2023-05-07T21:06:21.846Z,22.9
2023-05-07T21:12:13.640Z,22.9
2023-05-07T21:18:05.570Z,22.9
2023-05-07T21:23:57.641Z,22.8
2023-05-07T21:29:49.448Z,22.8
2023-05-07T21:35:26.822Z,22.8
2023-05-07T21:41:19.107Z,22.8
2023-05-07T21:47:11.078Z,22.8
2023-05-07T21:53:02.803Z,22.8
2023-05-07T21:59:09.813Z,22.8
2023-05-07T22:05:02.978Z,22.8
2023-05-07T22:10:54.306Z,22.8
2023-05-07T22:16:59.483Z,22.8
2023-05-07T22:22:52.399Z,22.7
2023-05-07T22:28:43.798Z,22.7
2023-05-07T22:34:23.392Z,22.8
2023-05-07T22:40:15.212Z,22.7
2023-05-07T22:46:07.680Z,22.8
2023-05-07T22:52:00.441Z,22.7
2023-05-07T22:57:52.021Z,22.7
2023-05-07T23:03:44.011Z,22.7
2023-05-07T23:09:35.475Z,22.7
2023-05-07T23:15:29.907Z,22.7
2023-05-07T23:21:22.182Z,22.7
2023-05-07T23:27:14.051Z,22.7
2023-05-07T23:33:06.478Z,22.7
2023-05-07T23:38:57.704Z,22.6
2023-05-07T23:44:48.637Z,22.7
2023-05-07T23:50:39.906Z,22.7
2023-05-07T23:56:30.555Z,22.6
